createdAt,value
2023-03-10T00:01:19.264Z,99197.16
2023-03-10T00:03:47.789Z,99193.55
2023-03-10T00:06:16.865Z,99195.28
2023-03-10T00:08:46.141Z,99180.19
2023-03-10T00:11:14.544Z,99167.73
2023-03-10T00:13:44.597Z,99182.72
2023-03-10T00:16:22.777Z,99181.20
2023-03-10T00:18:53.282Z,99178.30
2023-03-10T00:21:23.084Z,99175.20
2023-03-10T00:23:54.718Z,99179.19
2023-03-10T00:26:23.005Z,99167.27
2023-03-10T00:28:51.778Z,99170.91
2023-03-10T00:31:20.886Z,99178.11
2023-03-10T00:33:49.691Z,99186.15
2023-03-10T00:36:25.752Z,99197.23
2023-03-10T00:38:54.630Z,99180.15
2023-03-10T00:41:24.021Z,99187.13
2023-03-10T00:43:52.638Z,99172.86
2023-03-10T00:46:21.202Z,99168.70
2023-03-10T00:48:49.753Z,99171.88
2023-03-10T00:51:18.485Z,99179.61
2023-03-10T00:53:46.889Z,99183.89
2023-03-10T00:56:16.981Z,99187.14
2023-03-10T00:58:46.234Z,99200.29
2023-03-10T01:01:15.822Z,99200.80
2023-03-10T01:03:44.418Z,99193.52
2023-03-10T01:06:13.525Z,99208.02
2023-03-10T01:08:42.715Z,99195.00
2023-03-10T01:11:12.881Z,99195.58
2023-03-10T01:13:41.273Z,99201.15
2023-03-10T01:16:09.682Z,99205.14
2023-03-10T01:18:39.202Z,99212.27
2023-03-10T01:21:07.425Z,99216.83
2023-03-10T01:23:35.611Z,99227.42
2023-03-10T01:26:04.143Z,99238.63
2023-03-10T01:28:32.965Z,99242.70
2023-03-10T01:31:01.905Z,99241.79
2023-03-10T01:33:31.795Z,99246.60
2023-03-10T01:36:00.506Z,99253.86
2023-03-10T01:38:28.726Z,99257.64
2023-03-10T01:40:57.310Z,99256.00
2023-03-10T01:43:26.668Z,99259.96
2023-03-10T01:46:01.880Z,99268.33
2023-03-10T01:48:33.207Z,99275.00
2023-03-10T01:51:01.704Z,99276.59
2023-03-10T01:53:30.910Z,99277.04
2023-03-10T01:56:00.901Z,99276.62
2023-03-10T01:58:34.836Z,99281.33
2023-03-10T02:01:03.247Z,99282.86
2023-03-10T02:03:52.701Z,99268.36
2023-03-10T02:06:21.435Z,99276.80
2023-03-10T02:08:53.976Z,99272.29
2023-03-10T02:11:22.376Z,99265.20
2023-03-10T02:13:53.748Z,99271.79
2023-03-10T02:16:24.267Z,99264.38
2023-03-10T02:18:52.676Z,99265.10
2023-03-10T02:21:35.714Z,99262.61
2023-03-10T02:24:04.260Z,99263.95
2023-03-10T02:26:35.741Z,99257.48
2023-03-10T02:29:05.148Z,99265.00
2023-03-10T02:31:33.618Z,99266.23
2023-03-10T02:34:02.288Z,99258.85
2023-03-10T02:36:30.580Z,99260.77
2023-03-10T02:38:58.866Z,99270.76
2023-03-10T02:41:29.565Z,99275.06
2023-03-10T02:44:00.258Z,99273.34
2023-03-10T02:46:31.044Z,99278.72
2023-03-10T02:49:02.617Z,99284.41
2023-03-10T02:51:42.230Z,99289.39
2023-03-10T02:54:13.225Z,99289.80
2023-03-10T02:56:43.133Z,99289.17
2023-03-10T02:59:12.432Z,99295.98
2023-03-10T03:01:48.760Z,99292.65
2023-03-10T03:04:19.043Z,99294.23
2023-03-10T03:06:47.879Z,99289.32
2023-03-10T03:09:17.272Z,99290.39
2023-03-10T03:11:48.116Z,99289.79
2023-03-10T03:14:19.797Z,99293.63
2023-03-10T03:16:50.274Z,99289.98
2023-03-10T03:19:20.401Z,99295.13
2023-03-10T03:21:59.139Z,99306.03
2023-03-10T03:24:29.280Z,99306.36
2023-03-10T03:26:57.670Z,99306.92
2023-03-10T03:29:28.151Z,99304.38
2023-03-10T03:31:56.586Z,99306.63
2023-03-10T03:34:28.577Z,99300.12
2023-03-10T03:36:59.037Z,99294.77
2023-03-10T03:39:33.251Z,99300.31
2023-03-10T03:42:03.702Z,99305.05
2023-03-10T03:44:36.838Z,99298.55
2023-03-10T03:47:05.797Z,99304.64
2023-03-10T03:49:35.673Z,99314.11
2023-03-10T03:52:04.684Z,99315.10
2023-03-10T03:54:33.303Z,99318.29
2023-03-10T03:57:01.749Z,99325.65
2023-03-10T03:59:30.399Z,99327.46
2023-03-10T04:01:59.408Z,99327.14
2023-03-10T04:04:28.003Z,99330.89
2023-03-10T04:06:56.878Z,99328.77
2023-03-10T04:09:25.302Z,99330.40
2023-03-10T04:11:54.127Z,99333.21
2023-03-10T04:14:23.131Z,99335.70
2023-03-10T04:16:52.170Z,99336.31
2023-03-10T04:19:22.856Z,99342.34
2023-03-10T04:21:53.545Z,99342.30
2023-03-10T04:24:22.074Z,99341.41
2023-03-10T04:26:51.031Z,99340.92
2023-03-10T04:29:19.697Z,99345.70
2023-03-10T04:32:04.925Z,99345.36
2023-03-10T04:34:37.613Z,99351.98
2023-03-10T04:37:06.173Z,99354.20
2023-03-10T04:39:35.925Z,99347.72
2023-03-10T04:42:04.955Z,99355.91
2023-03-10T04:44:34.116Z,99359.21
2023-03-10T04:47:04.036Z,99365.16
2023-03-10T04:49:33.168Z,99366.86
2023-03-10T04:52:04.304Z,99368.48
2023-03-10T04:54:32.783Z,99373.89
2023-03-10T04:57:04.107Z,99368.44
2023-03-10T04:59:32.888Z,99371.15
2023-03-10T05:02:02.644Z,99370.15
2023-03-10T05:04:31.985Z,99369.45
2023-03-10T05:07:00.529Z,99368.33
2023-03-10T05:09:34.895Z,99362.95
2023-03-10T05:12:04.137Z,99363.58
2023-03-10T05:14:36.848Z,99368.61
2023-03-10T05:17:05.263Z,99372.02
2023-03-10T05:19:35.010Z,99375.98
2023-03-10T05:22:04.673Z,99377.30
2023-03-10T05:24:34.895Z,99383.05
2023-03-10T05:27:03.406Z,99388.50
2023-03-10T05:29:34.604Z,99388.59
2023-03-10T05:32:09.027Z,99395.05
2023-03-10T05:34:39.949Z,99401.85
2023-03-10T05:37:08.556Z,99409.04
2023-03-10T05:39:37.081Z,99415.35
2023-03-10T05:42:08.689Z,99416.23
2023-03-10T05:44:37.243Z,99418.66
2023-03-10T05:47:09.574Z,99421.23
2023-03-10T05:49:38.958Z,99432.65
2023-03-10T05:52:07.912Z,99436.70
2023-03-10T05:54:37.389Z,99437.51
2023-03-10T05:57:06.735Z,99437.77
2023-03-10T05:59:35.798Z,99436.95
2023-03-10T06:02:04.147Z,99435.44
2023-03-10T06:04:33.513Z,99429.77
2023-03-10T06:07:02.810Z,99427.92
2023-03-10T06:09:31.789Z,99429.67
2023-03-10T06:12:06.572Z,99436.27
2023-03-10T06:14:35.675Z,99441.98
2023-03-10T06:17:04.217Z,99445.91
2023-03-10T06:19:35.764Z,99442.59
2023-03-10T06:22:04.395Z,99451.40
2023-03-10T06:24:32.778Z,99461.52
2023-03-10T06:27:02.017Z,99461.42
2023-03-10T06:29:30.601Z,99458.64
2023-03-10T06:31:59.799Z,99472.40
2023-03-10T06:34:28.639Z,99475.22
2023-03-10T06:36:57.009Z,99474.95
2023-03-10T06:39:29.113Z,99473.55
2023-03-10T06:41:57.575Z,99479.08
2023-03-10T06:44:25.666Z,99481.95
2023-03-10T06:46:55.010Z,99478.27
2023-03-10T06:49:23.484Z,99479.14
2023-03-10T06:51:52.044Z,99484.80
2023-03-10T06:54:20.490Z,99488.61
2023-03-10T06:56:49.444Z,99486.64
2023-03-10T06:59:19.732Z,99489.10
2023-03-10T07:01:48.560Z,99488.02
2023-03-10T07:04:17.094Z,99487.11
2023-03-10T07:06:48.737Z,99483.73
2023-03-10T07:09:21.764Z,99485.89
2023-03-10T07:11:51.020Z,99486.88
2023-03-10T07:14:19.424Z,99485.86
2023-03-10T07:16:47.678Z,99487.89
2023-03-10T07:19:15.880Z,99488.39
2023-03-10T07:21:44.571Z,99493.45
2023-03-10T07:24:14.581Z,99491.96
2023-03-10T07:26:45.674Z,99489.66
2023-03-10T07:29:14.445Z,99490.30
2023-03-10T07:31:44.695Z,99495.24
2023-03-10T07:34:14.157Z,99497.55
2023-03-10T07:36:46.871Z,99499.64
2023-03-10T07:39:15.202Z,99503.60
2023-03-10T07:41:43.928Z,99507.64
2023-03-10T07:44:13.028Z,99507.94
2023-03-10T07:46:42.143Z,99517.41
2023-03-10T07:49:10.780Z,99519.77
2023-03-10T07:51:39.687Z,99521.20
2023-03-10T07:54:08.015Z,99525.85
2023-03-10T07:56:38.912Z,99524.94
2023-03-10T07:59:07.501Z,99527.41
2023-03-10T08:01:35.912Z,99527.83
2023-03-10T08:04:05.355Z,99532.80
2023-03-10T08:06:35.780Z,99531.90
2023-03-10T08:09:04.469Z,99539.79
2023-03-10T08:11:33.516Z,99549.44
2023-03-10T08:14:02.600Z,99551.46
2023-03-10T08:16:31.084Z,99556.29
2023-03-10T08:18:59.522Z,99562.96
2023-03-10T08:21:27.749Z,99569.02
2023-03-10T08:23:56.384Z,99568.27
2023-03-10T08:26:24.835Z,99573.55
2023-03-10T08:28:53.218Z,99582.07
2023-03-10T08:31:21.693Z,99584.63
2023-03-10T08:33:50.832Z,99586.25
2023-03-10T08:36:23.171Z,99591.66
2023-03-10T08:38:52.442Z,99596.36
2023-03-10T08:41:25.427Z,99597.12
2023-03-10T08:43:56.196Z,99602.52
2023-03-10T08:46:25.273Z,99603.26
2023-03-10T08:48:54.021Z,99604.22
2023-03-10T08:51:22.474Z,99606.96
2023-03-10T08:53:51.411Z,99609.54
2023-03-10T08:56:20.479Z,99609.34
2023-03-10T08:58:49.238Z,99615.25
2023-03-10T09:01:18.750Z,99618.24
2023-03-10T09:03:47.814Z,99624.28
2023-03-10T09:06:16.135Z,99620.73
2023-03-10T09:08:44.593Z,99627.73
2023-03-10T09:11:21.547Z,99632.41
2023-03-10T09:13:50.004Z,99638.36
2023-03-10T09:16:19.653Z,99645.29
2023-03-10T09:18:49.198Z,99646.94
2023-03-10T09:21:17.909Z,99653.70
2023-03-10T09:23:47.651Z,99658.46
2023-03-10T09:26:16.421Z,99658.48
2023-03-10T09:28:51.270Z,99665.30
2023-03-10T09:31:23.707Z,99666.63
2023-03-10T09:33:53.414Z,99670.10
2023-03-10T09:36:25.010Z,99676.63
2023-03-10T09:38:53.853Z,99682.16
2023-03-10T09:41:41.631Z,99681.58
2023-03-10T09:44:38.564Z,99677.98
2023-03-10T09:47:20.285Z,99682.58
2023-03-10T09:49:55.618Z,99676.66
2023-03-10T09:52:33.840Z,99676.98
2023-03-10T09:55:06.704Z,99674.88
2023-03-10T09:57:35.853Z,99675.80
2023-03-10T10:00:08.961Z,99674.74
2023-03-10T10:02:41.932Z,99673.11
2023-03-10T10:05:17.246Z,99675.17
2023-03-10T10:07:50.117Z,99673.07
2023-03-10T10:10:19.876Z,99674.36
2023-03-10T10:12:49.376Z,99674.48
2023-03-10T10:15:19.118Z,99671.39
2023-03-10T10:18:18.431Z,99673.12
2023-03-10T10:20:57.026Z,99672.95
2023-03-10T10:23:29.238Z,99677.26
2023-03-10T10:26:02.750Z,99679.68
2023-03-10T10:28:39.325Z,99676.85
2023-03-10T10:31:15.706Z,99678.45
2023-03-10T10:33:52.741Z,99676.70
2023-03-10T10:36:21.225Z,99678.56
2023-03-10T10:38:53.065Z,99678.06
2023-03-10T10:41:26.077Z,99682.11
2023-03-10T10:43:55.836Z,99680.20
2023-03-10T10:46:26.214Z,99682.17
2023-03-10T10:49:04.898Z,99681.72
2023-03-10T10:51:36.514Z,99683.42
2023-03-10T10:54:28.865Z,99688.73
2023-03-10T10:56:58.645Z,99692.27
2023-03-10T10:59:35.390Z,99697.17
2023-03-10T11:02:04.808Z,99690.36
2023-03-10T11:04:42.690Z,99691.17
2023-03-10T11:07:14.145Z,99690.97
2023-03-10T11:09:49.152Z,99691.43
2023-03-10T11:12:22.316Z,99692.34
2023-03-10T11:15:20.636Z,99688.87
2023-03-10T11:17:52.822Z,99685.52
2023-03-10T11:20:37.452Z,99678.54
2023-03-10T11:23:18.570Z,99678.88
2023-03-10T11:25:50.851Z,99683.13
2023-03-10T11:28:20.051Z,99692.37
2023-03-10T11:31:26.685Z,99699.02
2023-03-10T11:34:04.781Z,99695.61
2023-03-10T11:36:55.141Z,99699.12
2023-03-10T11:39:27.657Z,99695.44
2023-03-10T11:41:59.829Z,99697.64
2023-03-10T11:44:32.351Z,99700.91
2023-03-10T11:47:03.962Z,99703.95
2023-03-10T11:49:49.742Z,99703.16
2023-03-10T11:52:19.826Z,99709.78
2023-03-10T11:54:49.198Z,99715.23
2023-03-10T11:57:19.871Z,99714.08
2023-03-10T11:59:59.140Z,99719.04
2023-03-10T12:02:41.716Z,99715.67
2023-03-10T12:05:25.603Z,99719.36
2023-03-10T12:07:58.927Z,99727.36
2023-03-10T12:14:24.604Z,99727.89
2023-03-10T12:16:53.381Z,99728.92
2023-03-10T12:19:21.861Z,99727.04
2023-03-10T12:22:33.905Z,99734.16
2023-03-10T12:25:02.855Z,99735.17
2023-03-10T12:27:32.273Z,99736.77
2023-03-10T12:30:02.597Z,99734.95
2023-03-10T12:32:47.801Z,99738.83
2023-03-10T12:35:40.585Z,99741.06
2023-03-10T12:38:30.029Z,99742.60
2023-03-10T12:40:58.994Z,99741.96
2023-03-10T12:43:44.410Z,99746.80
2023-03-10T12:46:15.872Z,99747.15
2023-03-10T12:48:50.971Z,99747.63
2023-03-10T12:51:20.150Z,99749.23
2023-03-10T12:53:59.238Z,99754.33
2023-03-10T12:56:33.266Z,99755.56
2023-03-10T12:59:10.174Z,99758.91
2023-03-10T13:01:49.467Z,99756.88
2023-03-10T13:04:29.127Z,99761.73
2023-03-10T13:07:04.448Z,99762.96
2023-03-10T13:09:39.354Z,99764.79
2023-03-10T13:12:21.015Z,99764.49
2023-03-10T13:14:57.595Z,99768.95
2023-03-10T13:17:27.152Z,99774.75
2023-03-10T13:19:59.510Z,99776.45
2023-03-10T13:22:27.973Z,99775.55
2023-03-10T13:25:06.655Z,99784.45
2023-03-10T13:27:35.984Z,99778.97
2023-03-10T13:30:06.431Z,99781.56
2023-03-10T13:32:38.998Z,99782.30
2023-03-10T13:35:37.657Z,99780.52
2023-03-10T13:38:11.060Z,99777.11
2023-03-10T13:40:49.881Z,99768.05
2023-03-10T13:43:38.894Z,99771.77
2023-03-10T13:46:13.371Z,99769.44
2023-03-10T13:48:41.766Z,99769.23
2023-03-10T13:51:26.713Z,99768.98
2023-03-10T13:53:56.240Z,99769.36
2023-03-10T13:56:25.717Z,99774.27
2023-03-10T13:58:55.252Z,99777.70
2023-03-10T14:01:27.349Z,99778.21
2023-03-10T14:04:06.090Z,99781.61
2023-03-10T14:06:37.184Z,99781.82
2023-03-10T14:09:13.800Z,99782.09
2023-03-10T14:11:43.250Z,99785.40
2023-03-10T14:14:11.880Z,99788.11
2023-03-10T14:16:57.066Z,99791.02
2023-03-10T14:19:45.809Z,99794.23
2023-03-10T14:22:36.014Z,99793.61
2023-03-10T14:25:08.662Z,99791.59
2023-03-10T14:27:37.544Z,99791.88
2023-03-10T14:30:35.815Z,99793.55
2023-03-10T14:33:06.202Z,99799.30
2023-03-10T14:35:34.814Z,99800.10
2023-03-10T14:38:03.154Z,99800.58
2023-03-10T14:40:31.607Z,99805.98
2023-03-10T14:43:00.878Z,99806.69
2023-03-10T14:45:31.440Z,99806.13
2023-03-10T14:48:21.802Z,99812.05
2023-03-10T14:50:51.003Z,99815.38
2023-03-10T14:53:20.840Z,99813.09
2023-03-10T14:55:56.471Z,99815.24
2023-03-10T14:58:28.429Z,99816.63
2023-03-10T15:00:56.785Z,99819.64
2023-03-10T15:03:25.393Z,99823.18
2023-03-10T15:05:53.854Z,99825.09
2023-03-10T15:08:30.433Z,99819.66
2023-03-10T15:11:00.197Z,99819.02
2023-03-10T15:13:29.450Z,99820.16
2023-03-10T15:16:01.346Z,99817.61
2023-03-10T15:18:30.842Z,99821.70
2023-03-10T15:21:00.775Z,99822.39
2023-03-10T15:23:35.007Z,99826.67
2023-03-10T15:26:09.827Z,99830.44
2023-03-10T15:28:38.511Z,99840.46
2023-03-10T15:31:07.077Z,99851.12
2023-03-10T15:33:35.778Z,99858.14
2023-03-10T15:36:06.460Z,99859.81
2023-03-10T15:38:35.999Z,99858.44
2023-03-10T15:41:05.907Z,99862.44
2023-03-10T15:43:34.806Z,99864.98
2023-03-10T15:46:07.075Z,99865.02
2023-03-10T15:48:37.152Z,99867.02
2023-03-10T15:51:09.817Z,99869.91
2023-03-10T15:53:38.518Z,99872.85
2023-03-10T15:56:07.722Z,99877.20
2023-03-10T15:58:36.449Z,99876.91
2023-03-10T16:01:09.134Z,99886.39
2023-03-10T16:03:37.825Z,99886.00
2023-03-10T16:06:09.793Z,99895.79
2023-03-10T16:08:39.059Z,99904.32
2023-03-10T16:11:11.922Z,99910.64
2023-03-10T16:13:41.381Z,99912.45
2023-03-10T16:16:10.617Z,99916.38
2023-03-10T16:18:39.153Z,99913.59
2023-03-10T16:21:07.648Z,99908.81
2023-03-10T16:23:38.195Z,99902.58
2023-03-10T16:26:13.878Z,99901.60
2023-03-10T16:28:45.331Z,99899.20
2023-03-10T16:31:14.385Z,99897.39
2023-03-10T16:33:45.542Z,99897.52
2023-03-10T16:36:15.108Z,99896.27
2023-03-10T16:38:43.521Z,99889.63
2023-03-10T16:41:11.780Z,99886.73
2023-03-10T16:43:40.480Z,99892.20
2023-03-10T16:46:08.783Z,99899.49
2023-03-10T16:48:44.747Z,99897.92
2023-03-10T16:51:29.945Z,99902.86
2023-03-10T16:54:02.708Z,99905.52
2023-03-10T16:56:31.370Z,99905.75
2023-03-10T16:59:00.221Z,99898.28
2023-03-10T17:01:28.794Z,99895.29
2023-03-10T17:03:57.668Z,99898.67
2023-03-10T17:06:28.134Z,99901.36
2023-03-10T17:08:58.398Z,99903.45
2023-03-10T17:11:28.352Z,99905.66
2023-03-10T17:14:03.502Z,99904.91
2023-03-10T17:16:32.858Z,99901.86
2023-03-10T17:19:02.378Z,99906.33
2023-03-10T17:21:36.084Z,99907.48
2023-03-10T17:24:05.740Z,99907.48
2023-03-10T17:26:35.405Z,99905.66
2023-03-10T17:29:04.212Z,99899.93
2023-03-10T17:31:36.931Z,99897.92
2023-03-10T17:34:07.073Z,99898.12
2023-03-10T17:36:35.624Z,99896.55
2023-03-10T17:39:05.819Z,99904.93
2023-03-10T17:41:34.808Z,99910.58
2023-03-10T17:44:07.280Z,99911.02
2023-03-10T17:46:41.230Z,99916.51
2023-03-10T17:49:11.624Z,99919.41
2023-03-10T17:51:43.817Z,99920.11
2023-03-10T17:54:12.985Z,99915.08
2023-03-10T17:56:42.330Z,99921.66
2023-03-10T17:59:13.334Z,99926.70
2023-03-10T18:01:43.147Z,99932.93
2023-03-10T18:04:14.073Z,99934.44
2023-03-10T18:06:43.877Z,99942.64
2023-03-10T18:09:34.743Z,99946.77
2023-03-10T18:12:03.044Z,99946.77
2023-03-10T18:14:31.586Z,99943.88
2023-03-10T18:17:01.009Z,99938.10
2023-03-10T18:19:31.972Z,99934.23
2023-03-10T18:22:08.281Z,99935.58
2023-03-10T18:24:43.338Z,99938.21
2023-03-10T18:27:12.179Z,99939.63
2023-03-10T18:29:40.531Z,99940.45
2023-03-10T18:32:09.196Z,99940.70
2023-03-10T18:34:40.332Z,99942.52
2023-03-10T18:37:08.737Z,99941.27
2023-03-10T18:39:40.932Z,99943.30
2023-03-10T18:42:10.712Z,99945.37
2023-03-10T18:44:39.500Z,99944.37
2023-03-10T18:47:08.182Z,99939.08
2023-03-10T18:49:36.710Z,99932.02
2023-03-10T18:52:05.556Z,99928.88
2023-03-10T18:54:34.002Z,99934.66
2023-03-10T18:57:02.679Z,99935.94
2023-03-10T18:59:31.630Z,99932.95
2023-03-10T19:02:00.018Z,99939.73
2023-03-10T19:04:28.865Z,99935.59
2023-03-10T19:06:57.185Z,99934.42
2023-03-10T19:09:29.595Z,99934.11
2023-03-10T19:11:59.946Z,99936.45
2023-03-10T19:14:28.235Z,99939.27
2023-03-10T19:16:57.611Z,99941.76
2023-03-10T19:19:28.361Z,99939.96
2023-03-10T19:21:58.129Z,99934.99
2023-03-10T19:24:26.821Z,99932.84
2023-03-10T19:26:55.209Z,99930.67
2023-03-10T19:29:23.863Z,99929.96
2023-03-10T19:31:56.178Z,99929.58
2023-03-10T19:34:25.901Z,99931.37
2023-03-10T19:36:54.332Z,99933.39
2023-03-10T19:39:24.128Z,99926.77
2023-03-10T19:41:53.029Z,99922.49
2023-03-10T19:44:23.169Z,99919.92
2023-03-10T19:46:52.294Z,99920.23
2023-03-10T19:49:24.600Z,99918.13
2023-03-10T19:51:53.663Z,99910.81
2023-03-10T19:54:22.039Z,99916.11
2023-03-10T19:56:50.446Z,99912.52
2023-03-10T19:59:18.893Z,99914.86
2023-03-10T20:01:49.424Z,99913.92
2023-03-10T20:04:18.161Z,99919.06
2023-03-10T20:06:46.750Z,99919.92
2023-03-10T20:09:19.214Z,99920.86
2023-03-10T20:11:47.813Z,99921.48
2023-03-10T20:14:16.045Z,99920.39
2023-03-10T20:16:45.531Z,99919.13
2023-03-10T20:19:14.842Z,99918.89
2023-03-10T20:21:43.814Z,99914.08
2023-03-10T20:24:13.415Z,99909.88
2023-03-10T20:26:42.211Z,99915.25
2023-03-10T20:29:11.510Z,99915.95
2023-03-10T20:31:40.926Z,99907.94
2023-03-10T20:34:12.193Z,99909.02
2023-03-10T20:36:40.702Z,99908.56
2023-03-10T20:39:10.416Z,99902.41
2023-03-10T20:41:39.373Z,99905.29
2023-03-10T20:44:14.293Z,99904.75
2023-03-10T20:46:43.320Z,99904.11
2023-03-10T20:49:11.811Z,99901.63
2023-03-10T20:51:40.699Z,99901.09
2023-03-10T20:54:09.077Z,99896.04
2023-03-10T20:56:38.664Z,99890.04
2023-03-10T20:59:08.194Z,99888.25
2023-03-10T21:01:40.066Z,99891.89
2023-03-10T21:04:08.909Z,99891.67
2023-03-10T21:06:37.867Z,99896.19
2023-03-10T21:09:07.548Z,99895.80
2023-03-10T21:11:36.080Z,99895.10
2023-03-10T21:14:06.654Z,99895.80
2023-03-10T21:16:39.680Z,99900.55
2023-03-10T21:19:13.298Z,99895.80
2023-03-10T21:21:42.879Z,99895.10
2023-03-10T21:24:11.389Z,99896.11
2023-03-10T21:26:44.794Z,99890.89
2023-03-10T21:29:12.959Z,99892.30
2023-03-10T21:31:41.590Z,99892.22
2023-03-10T21:34:10.421Z,99888.71
2023-03-10T21:36:38.997Z,99887.00
2023-03-10T21:39:09.224Z,99880.01
2023-03-10T21:41:37.786Z,99876.03
2023-03-10T21:44:07.823Z,99879.30
2023-03-10T21:46:38.600Z,99879.08
2023-03-10T21:49:07.704Z,99881.24
2023-03-10T21:51:37.267Z,99882.73
2023-03-10T21:54:06.147Z,99881.56
2023-03-10T21:56:38.808Z,99877.68
2023-03-10T21:59:07.828Z,99869.96
2023-03-10T22:01:37.024Z,99871.98
2023-03-10T22:04:05.866Z,99874.72
2023-03-10T22:06:34.428Z,99871.13
2023-03-10T22:09:05.775Z,99865.23
2023-03-10T22:11:34.236Z,99865.30
2023-03-10T22:14:04.218Z,99863.89
2023-03-10T22:16:32.735Z,99868.25
2023-03-10T22:19:01.895Z,99862.11
2023-03-10T22:21:30.993Z,99862.89
2023-03-10T22:24:00.288Z,99858.23
2023-03-10T22:26:30.024Z,99858.62
2023-03-10T22:29:00.621Z,99852.79
2023-03-10T22:31:28.971Z,99852.77
2023-03-10T22:33:57.308Z,99844.76
2023-03-10T22:36:25.697Z,99841.82
2023-03-10T22:38:54.505Z,99841.58
2023-03-10T22:41:23.303Z,99834.80
2023-03-10T22:43:51.941Z,99833.95
2023-03-10T22:46:20.593Z,99837.52
2023-03-10T22:48:49.554Z,99835.20
2023-03-10T22:51:18.482Z,99836.67
2023-03-10T22:53:50.203Z,99833.48
2023-03-10T22:56:18.749Z,99827.19
2023-03-10T22:58:47.601Z,99827.49
2023-03-10T23:01:15.794Z,99824.16
2023-03-10T23:03:44.668Z,99826.86
2023-03-10T23:06:15.834Z,99821.89
2023-03-10T23:08:47.408Z,99824.84
2023-03-10T23:11:15.876Z,99821.90
2023-03-10T23:13:45.043Z,99817.45
2023-03-10T23:16:18.284Z,99816.83
2023-03-10T23:18:47.175Z,99818.30
2023-03-10T23:21:15.586Z,99817.70
2023-03-10T23:23:48.036Z,99814.11
2023-03-10T23:26:16.589Z,99813.00
2023-03-10T23:28:47.619Z,99814.16
2023-03-10T23:31:17.345Z,99813.59
2023-03-10T23:33:45.732Z,99805.27
2023-03-10T23:36:14.193Z,99799.66
2023-03-10T23:38:43.180Z,99799.80
2023-03-10T23:41:11.630Z,99799.03
2023-03-10T23:43:40.031Z,99793.11
2023-03-10T23:46:10.400Z,99792.48
2023-03-10T23:48:39.683Z,99788.98
2023-03-10T23:51:16.154Z,99785.41
2023-03-10T23:53:46.707Z,99778.81
2023-03-10T23:56:16.176Z,99776.25
2023-03-10T23:58:44.575Z,99773.69
